Terminal Aerodrome Forecast
Issued by NWS

Home | Current Version | Previous Version | Text Only | Print | Product List | Glossary Off
Versions: 1 2 3 4 5 6 7 8 9 10 11 12 13 14

000
FTUS42 KTBW 202300
TAFRSW
TAF
KRSW 202335Z 2100/2124 VRB03KT P6SM BKN060
     FM210600 VRB03KT P6SM VCSH BKN050
     FM211400 14004KT P6SM VCSH BKN050
     FM211800 22006KT P6SM VCTS SCT030CB BKN050=

USA.gov is the U.S. government's official web portal to all federal, state and local government web resources and services.